Clinton, Illinois
Current Conditions -  °F | °C
As of 6:55 PM on Monday 22 Dec 2014 (Local Time) from KAAA Reporting Station
Moderate Rain Moderate Rain  
Wind Chill: 42°   Ceiling: 600
Heat Index: 47°   Visibility: 4mi
Dew Point: 46°   Wind: 10mph
Humidity: 95%   Direction: 140°SE
Pressure: 29.57"   Gusts: 16mph
Location:  40.15°N, 88.96°W
Report Text: KAAA 230055Z AUTO 14009G14KT 4SM RA OVC006 08/08 A2957 RMK AO2 P0002 T00830075
Loading
Personal Weather Stations






























Interactive Weather Map New forecast layout! Learn more

10-Day Weather Forecast

Advertisements
Track Severe Weather on mobile